sensor_id;sensor_type;location;lat;lon;timestamp;P1;durP1;ratioP1;P2;durP2;ratioP2
22632;SDS011;11483;55.828;37.488;2022-12-29T00:01:31;7.17;;;2.47;;
22632;SDS011;11483;55.828;37.488;2022-12-29T00:03:58;6.80;;;1.70;;
22632;SDS011;11483;55.828;37.488;2022-12-29T00:06:24;9.47;;;1.93;;
22632;SDS011;11483;55.828;37.488;2022-12-29T00:08:53;2.00;;;1.53;;
22632;SDS011;11483;55.828;37.488;2022-12-29T00:11:20;6.37;;;1.13;;
22632;SDS011;11483;55.828;37.488;2022-12-29T00:13:47;3.53;;;1.57;;
22632;SDS011;11483;55.828;37.488;2022-12-29T00:16:33;2.37;;;1.20;;
22632;SDS011;11483;55.828;37.488;2022-12-29T00:19:00;2.23;;;1.20;;
22632;SDS011;11483;55.828;37.488;2022-12-29T00:21:27;6.03;;;1.30;;
22632;SDS011;11483;55.828;37.488;2022-12-29T00:24:17;6.30;;;1.70;;
22632;SDS011;11483;55.828;37.488;2022-12-29T00:26:48;2.00;;;0.97;;
22632;SDS011;11483;55.828;37.488;2022-12-29T00:29:38;6.70;;;1.53;;
22632;SDS011;11483;55.828;37.488;2022-12-29T00:32:22;6.60;;;1.20;;
22632;SDS011;11483;55.828;37.488;2022-12-29T00:35:08;7.83;;;1.83;;
22632;SDS011;11483;55.828;37.488;2022-12-29T00:37:46;4.23;;;1.13;;
22632;SDS011;11483;55.828;37.488;2022-12-29T00:40:31;5.60;;;1.20;;
22632;SDS011;11483;55.828;37.488;2022-12-29T00:43:15;3.90;;;1.37;;
22632;SDS011;11483;55.828;37.488;2022-12-29T00:46:00;3.60;;;1.07;;
22632;SDS011;11483;55.828;37.488;2022-12-29T00:48:25;5.27;;;1.10;;
22632;SDS011;11483;55.828;37.488;2022-12-29T00:51:10;3.93;;;1.10;;
22632;SDS011;11483;55.828;37.488;2022-12-29T00:53:36;4.57;;;1.23;;
22632;SDS011;11483;55.828;37.488;2022-12-29T00:56:01;1.53;;;0.80;;
22632;SDS011;11483;55.828;37.488;2022-12-29T00:58:28;2.83;;;1.20;;
22632;SDS011;11483;55.828;37.488;2022-12-29T01:01:04;2.80;;;1.00;;
22632;SDS011;11483;55.828;37.488;2022-12-29T01:03:32;3.57;;;1.03;;
22632;SDS011;11483;55.828;37.488;2022-12-29T01:06:02;6.63;;;1.07;;
22632;SDS011;11483;55.828;37.488;2022-12-29T01:08:30;1.70;;;1.00;;
22632;SDS011;11483;55.828;37.488;2022-12-29T01:13:26;6.77;;;0.97;;
22632;SDS011;11483;55.828;37.488;2022-12-29T01:15:52;8.67;;;1.47;;
22632;SDS011;11483;55.828;37.488;2022-12-29T01:18:18;5.70;;;1.20;;
22632;SDS011;11483;55.828;37.488;2022-12-29T01:20:44;6.53;;;1.47;;
22632;SDS011;11483;55.828;37.488;2022-12-29T01:23:10;2.50;;;1.00;;
22632;SDS011;11483;55.828;37.488;2022-12-29T01:25:36;3.47;;;0.97;;
22632;SDS011;11483;55.828;37.488;2022-12-29T01:28:02;5.87;;;1.50;;
22632;SDS011;11483;55.828;37.488;2022-12-29T01:30:28;8.33;;;1.37;;
22632;SDS011;11483;55.828;37.488;2022-12-29T01:32:54;4.47;;;1.37;;
22632;SDS011;11483;55.828;37.488;2022-12-29T01:35:20;9.60;;;1.20;;
22632;SDS011;11483;55.828;37.488;2022-12-29T01:37:46;8.13;;;1.10;;
22632;SDS011;11483;55.828;37.488;2022-12-29T01:40:12;6.13;;;1.30;;
22632;SDS011;11483;55.828;37.488;2022-12-29T01:42:38;3.57;;;1.23;;
22632;SDS011;11483;55.828;37.488;2022-12-29T01:45:11;3.20;;;1.10;;
22632;SDS011;11483;55.828;37.488;2022-12-29T01:47:39;2.77;;;0.90;;
22632;SDS011;11483;55.828;37.488;2022-12-29T01:50:09;7.47;;;2.13;;
22632;SDS011;11483;55.828;37.488;2022-12-29T01:52:44;13.27;;;1.63;;
22632;SDS011;11483;55.828;37.488;2022-12-29T01:55:33;6.37;;;1.17;;
22632;SDS011;11483;55.828;37.488;2022-12-29T01:58:05;7.10;;;1.90;;
22632;SDS011;11483;55.828;37.488;2022-12-29T02:00:32;3.43;;;1.73;;
22632;SDS011;11483;55.828;37.488;2022-12-29T02:03:02;3.67;;;1.30;;
22632;SDS011;11483;55.828;37.488;2022-12-29T02:05:39;10.70;;;2.07;;
22632;SDS011;11483;55.828;37.488;2022-12-29T02:08:10;5.63;;;1.30;;
22632;SDS011;11483;55.828;37.488;2022-12-29T02:10:38;4.83;;;1.30;;
22632;SDS011;11483;55.828;37.488;2022-12-29T02:13:05;5.10;;;1.20;;
22632;SDS011;11483;55.828;37.488;2022-12-29T02:18:18;5.67;;;1.70;;
22632;SDS011;11483;55.828;37.488;2022-12-29T02:24:07;6.03;;;1.20;;
22632;SDS011;11483;55.828;37.488;2022-12-29T02:34:47;5.70;;;1.67;;
22632;SDS011;11483;55.828;37.488;2022-12-29T02:37:24;4.37;;;1.33;;
22632;SDS011;11483;55.828;37.488;2022-12-29T02:42:51;6.57;;;1.13;;
22632;SDS011;11483;55.828;37.488;2022-12-29T02:45:35;4.47;;;1.30;;
22632;SDS011;11483;55.828;37.488;2022-12-29T02:48:15;4.87;;;1.30;;
22632;SDS011;11483;55.828;37.488;2022-12-29T02:50:59;5.30;;;1.50;;
22632;SDS011;11483;55.828;37.488;2022-12-29T02:53:45;7.13;;;1.37;;
22632;SDS011;11483;55.828;37.488;2022-12-29T02:56:30;4.83;;;1.30;;
22632;SDS011;11483;55.828;37.488;2022-12-29T02:58:56;5.00;;;1.27;;
22632;SDS011;11483;55.828;37.488;2022-12-29T03:04:35;13.57;;;1.70;;
22632;SDS011;11483;55.828;37.488;2022-12-29T03:15:22;6.93;;;1.80;;
22632;SDS011;11483;55.828;37.488;2022-12-29T03:18:25;7.87;;;1.33;;
22632;SDS011;11483;55.828;37.488;2022-12-29T03:21:09;9.67;;;1.80;;
22632;SDS011;11483;55.828;37.488;2022-12-29T03:23:43;8.13;;;1.47;;
22632;SDS011;11483;55.828;37.488;2022-12-29T03:26:14;4.10;;;1.30;;
22632;SDS011;11483;55.828;37.488;2022-12-29T03:28:52;7.00;;;1.67;;
22632;SDS011;11483;55.828;37.488;2022-12-29T03:31:22;7.43;;;1.33;;
22632;SDS011;11483;55.828;37.488;2022-12-29T03:33:50;8.87;;;2.27;;
22632;SDS011;11483;55.828;37.488;2022-12-29T03:36:21;7.53;;;1.27;;
22632;SDS011;11483;55.828;37.488;2022-12-29T03:39:05;6.33;;;1.40;;
22632;SDS011;11483;55.828;37.488;2022-12-29T03:41:36;3.77;;;1.20;;
22632;SDS011;11483;55.828;37.488;2022-12-29T03:44:07;3.57;;;0.90;;
22632;SDS011;11483;55.828;37.488;2022-12-29T03:46:34;5.13;;;1.10;;
22632;SDS011;11483;55.828;37.488;2022-12-29T03:49:00;6.17;;;1.60;;
22632;SDS011;11483;55.828;37.488;2022-12-29T03:51:26;10.07;;;1.57;;
22632;SDS011;11483;55.828;37.488;2022-12-29T03:53:52;9.87;;;1.60;;
22632;SDS011;11483;55.828;37.488;2022-12-29T03:56:18;7.20;;;1.23;;
22632;SDS011;11483;55.828;37.488;2022-12-29T03:58:47;5.23;;;1.20;;
22632;SDS011;11483;55.828;37.488;2022-12-29T04:01:12;7.53;;;1.40;;
22632;SDS011;11483;55.828;37.488;2022-12-29T04:03:38;7.60;;;1.10;;
22632;SDS011;11483;55.828;37.488;2022-12-29T04:06:04;4.33;;;1.63;;
22632;SDS011;11483;55.828;37.488;2022-12-29T04:08:30;4.93;;;1.10;;
22632;SDS011;11483;55.828;37.488;2022-12-29T04:10:56;4.97;;;1.70;;
22632;SDS011;11483;55.828;37.488;2022-12-29T04:13:22;7.93;;;1.20;;
22632;SDS011;11483;55.828;37.488;2022-12-29T04:15:48;8.07;;;2.23;;
22632;SDS011;11483;55.828;37.488;2022-12-29T04:18:14;2.30;;;1.33;;
22632;SDS011;11483;55.828;37.488;2022-12-29T04:20:41;5.77;;;1.30;;
22632;SDS011;11483;55.828;37.488;2022-12-29T04:23:26;2.00;;;1.17;;
22632;SDS011;11483;55.828;37.488;2022-12-29T04:25:53;7.50;;;1.77;;
22632;SDS011;11483;55.828;37.488;2022-12-29T04:28:19;5.50;;;1.20;;
22632;SDS011;11483;55.828;37.488;2022-12-29T04:30:45;3.40;;;1.40;;
22632;SDS011;11483;55.828;37.488;2022-12-29T04:33:12;8.60;;;1.50;;
22632;SDS011;11483;55.828;37.488;2022-12-29T04:35:38;4.63;;;1.30;;
22632;SDS011;11483;55.828;37.488;2022-12-29T04:38:04;5.07;;;1.47;;
22632;SDS011;11483;55.828;37.488;2022-12-29T04:40:30;5.63;;;1.50;;
22632;SDS011;11483;55.828;37.488;2022-12-29T04:42:55;8.17;;;1.00;;
22632;SDS011;11483;55.828;37.488;2022-12-29T04:45:21;2.97;;;1.20;;
22632;SDS011;11483;55.828;37.488;2022-12-29T04:47:47;5.57;;;1.60;;
22632;SDS011;11483;55.828;37.488;2022-12-29T04:50:13;5.53;;;1.70;;
22632;SDS011;11483;55.828;37.488;2022-12-29T04:52:39;9.73;;;1.40;;
22632;SDS011;11483;55.828;37.488;2022-12-29T04:55:05;3.77;;;1.40;;
22632;SDS011;11483;55.828;37.488;2022-12-29T04:57:31;5.37;;;1.33;;
22632;SDS011;11483;55.828;37.488;2022-12-29T04:59:57;4.83;;;1.30;;
22632;SDS011;11483;55.828;37.488;2022-12-29T05:02:23;1.50;;;1.20;;
22632;SDS011;11483;55.828;37.488;2022-12-29T05:04:49;7.33;;;1.20;;
22632;SDS011;11483;55.828;37.488;2022-12-29T05:07:15;4.23;;;1.43;;
22632;SDS011;11483;55.828;37.488;2022-12-29T05:09:41;7.10;;;1.73;;
22632;SDS011;11483;55.828;37.488;2022-12-29T05:12:07;7.77;;;1.63;;
22632;SDS011;11483;55.828;37.488;2022-12-29T05:14:33;5.30;;;1.33;;
22632;SDS011;11483;55.828;37.488;2022-12-29T05:16:59;5.57;;;1.97;;
22632;SDS011;11483;55.828;37.488;2022-12-29T05:19:24;6.40;;;1.77;;
22632;SDS011;11483;55.828;37.488;2022-12-29T05:21:50;6.77;;;1.57;;
22632;SDS011;11483;55.828;37.488;2022-12-29T05:24:16;7.43;;;2.20;;
22632;SDS011;11483;55.828;37.488;2022-12-29T05:26:42;3.83;;;1.80;;
22632;SDS011;11483;55.828;37.488;2022-12-29T05:29:08;5.33;;;2.10;;
22632;SDS011;11483;55.828;37.488;2022-12-29T05:31:34;8.63;;;2.30;;
22632;SDS011;11483;55.828;37.488;2022-12-29T05:34:00;6.37;;;1.93;;
22632;SDS011;11483;55.828;37.488;2022-12-29T05:36:27;7.87;;;3.10;;
22632;SDS011;11483;55.828;37.488;2022-12-29T05:38:53;6.03;;;2.17;;
22632;SDS011;11483;55.828;37.488;2022-12-29T05:41:18;5.43;;;2.50;;
22632;SDS011;11483;55.828;37.488;2022-12-29T05:43:44;8.37;;;2.33;;
22632;SDS011;11483;55.828;37.488;2022-12-29T05:46:10;9.33;;;2.63;;
22632;SDS011;11483;55.828;37.488;2022-12-29T05:48:36;8.50;;;2.87;;
22632;SDS011;11483;55.828;37.488;2022-12-29T05:51:02;7.47;;;2.47;;
22632;SDS011;11483;55.828;37.488;2022-12-29T05:53:28;15.13;;;2.57;;
22632;SDS011;11483;55.828;37.488;2022-12-29T05:55:53;7.70;;;2.50;;
22632;SDS011;11483;55.828;37.488;2022-12-29T05:58:19;9.83;;;2.97;;
22632;SDS011;11483;55.828;37.488;2022-12-29T06:00:45;8.00;;;2.83;;
22632;SDS011;11483;55.828;37.488;2022-12-29T06:03:11;10.40;;;2.70;;
22632;SDS011;11483;55.828;37.488;2022-12-29T06:05:37;14.30;;;3.13;;
22632;SDS011;11483;55.828;37.488;2022-12-29T06:08:03;9.57;;;2.67;;
22632;SDS011;11483;55.828;37.488;2022-12-29T06:10:29;5.73;;;2.50;;
22632;SDS011;11483;55.828;37.488;2022-12-29T06:12:54;6.97;;;2.20;;
22632;SDS011;11483;55.828;37.488;2022-12-29T06:15:20;13.07;;;3.20;;
22632;SDS011;11483;55.828;37.488;2022-12-29T06:17:46;10.37;;;2.93;;
22632;SDS011;11483;55.828;37.488;2022-12-29T06:20:12;9.53;;;2.97;;
22632;SDS011;11483;55.828;37.488;2022-12-29T06:22:38;6.17;;;2.53;;
22632;SDS011;11483;55.828;37.488;2022-12-29T06:25:04;11.97;;;3.83;;
22632;SDS011;11483;55.828;37.488;2022-12-29T06:27:30;10.17;;;2.70;;
22632;SDS011;11483;55.828;37.488;2022-12-29T06:29:56;7.80;;;2.50;;
22632;SDS011;11483;55.828;37.488;2022-12-29T06:32:22;7.10;;;2.50;;
22632;SDS011;11483;55.828;37.488;2022-12-29T06:34:48;5.37;;;2.30;;
22632;SDS011;11483;55.828;37.488;2022-12-29T06:37:14;12.47;;;2.37;;
22632;SDS011;11483;55.828;37.488;2022-12-29T06:39:40;9.20;;;2.63;;
22632;SDS011;11483;55.828;37.488;2022-12-29T06:42:08;8.73;;;2.63;;
22632;SDS011;11483;55.828;37.488;2022-12-29T06:44:34;13.03;;;3.30;;
22632;SDS011;11483;55.828;37.488;2022-12-29T06:47:00;7.53;;;2.73;;
22632;SDS011;11483;55.828;37.488;2022-12-29T06:49:26;6.53;;;2.27;;
22632;SDS011;11483;55.828;37.488;2022-12-29T06:51:52;10.70;;;2.73;;
22632;SDS011;11483;55.828;37.488;2022-12-29T06:54:18;8.03;;;3.03;;
22632;SDS011;11483;55.828;37.488;2022-12-29T06:56:44;9.47;;;3.23;;
22632;SDS011;11483;55.828;37.488;2022-12-29T06:59:09;11.00;;;3.27;;
22632;SDS011;11483;55.828;37.488;2022-12-29T07:01:35;9.47;;;2.83;;
22632;SDS011;11483;55.828;37.488;2022-12-29T07:04:02;14.57;;;3.27;;
22632;SDS011;11483;55.828;37.488;2022-12-29T07:06:28;15.07;;;3.63;;
22632;SDS011;11483;55.828;37.488;2022-12-29T07:08:54;10.13;;;2.83;;
22632;SDS011;11483;55.828;37.488;2022-12-29T07:11:22;9.80;;;3.30;;
22632;SDS011;11483;55.828;37.488;2022-12-29T07:13:48;7.87;;;3.33;;
22632;SDS011;11483;55.828;37.488;2022-12-29T07:16:14;14.57;;;2.87;;
22632;SDS011;11483;55.828;37.488;2022-12-29T07:18:40;12.13;;;2.93;;
22632;SDS011;11483;55.828;37.488;2022-12-29T07:21:06;12.30;;;2.87;;
22632;SDS011;11483;55.828;37.488;2022-12-29T07:23:32;10.93;;;2.60;;
22632;SDS011;11483;55.828;37.488;2022-12-29T07:25:58;14.57;;;2.70;;
22632;SDS011;11483;55.828;37.488;2022-12-29T07:28:29;10.73;;;2.77;;
22632;SDS011;11483;55.828;37.488;2022-12-29T07:30:55;8.33;;;2.93;;
22632;SDS011;11483;55.828;37.488;2022-12-29T07:33:21;14.13;;;3.37;;
22632;SDS011;11483;55.828;37.488;2022-12-29T07:35:47;8.77;;;2.97;;
22632;SDS011;11483;55.828;37.488;2022-12-29T07:38:13;4.03;;;2.07;;
22632;SDS011;11483;55.828;37.488;2022-12-29T07:40:39;12.30;;;3.57;;
22632;SDS011;11483;55.828;37.488;2022-12-29T07:43:05;9.03;;;1.93;;
22632;SDS011;11483;55.828;37.488;2022-12-29T07:45:31;5.87;;;2.40;;
22632;SDS011;11483;55.828;37.488;2022-12-29T07:47:57;25.40;;;3.10;;
22632;SDS011;11483;55.828;37.488;2022-12-29T07:50:23;5.67;;;2.07;;
22632;SDS011;11483;55.828;37.488;2022-12-29T07:52:49;7.40;;;2.60;;
22632;SDS011;11483;55.828;37.488;2022-12-29T07:55:15;11.53;;;2.67;;
22632;SDS011;11483;55.828;37.488;2022-12-29T07:57:42;5.87;;;2.03;;
22632;SDS011;11483;55.828;37.488;2022-12-29T08:00:08;14.77;;;2.57;;
22632;SDS011;11483;55.828;37.488;2022-12-29T08:02:34;4.97;;;2.53;;
22632;SDS011;11483;55.828;37.488;2022-12-29T08:05:00;6.40;;;2.73;;
22632;SDS011;11483;55.828;37.488;2022-12-29T08:07:26;9.60;;;3.00;;
22632;SDS011;11483;55.828;37.488;2022-12-29T08:09:52;8.47;;;1.87;;
22632;SDS011;11483;55.828;37.488;2022-12-29T08:12:18;11.90;;;2.70;;
22632;SDS011;11483;55.828;37.488;2022-12-29T08:14:44;8.57;;;2.57;;
22632;SDS011;11483;55.828;37.488;2022-12-29T08:17:10;8.67;;;2.20;;
22632;SDS011;11483;55.828;37.488;2022-12-29T08:19:36;7.80;;;2.73;;
22632;SDS011;11483;55.828;37.488;2022-12-29T08:22:02;4.40;;;2.10;;
22632;SDS011;11483;55.828;37.488;2022-12-29T08:24:28;5.10;;;2.57;;
22632;SDS011;11483;55.828;37.488;2022-12-29T08:26:54;6.03;;;2.43;;
22632;SDS011;11483;55.828;37.488;2022-12-29T08:29:20;9.37;;;2.67;;
22632;SDS011;11483;55.828;37.488;2022-12-29T08:31:46;7.23;;;2.47;;
22632;SDS011;11483;55.828;37.488;2022-12-29T08:34:13;11.03;;;3.60;;
22632;SDS011;11483;55.828;37.488;2022-12-29T08:36:39;14.20;;;3.40;;
22632;SDS011;11483;55.828;37.488;2022-12-29T08:39:04;9.57;;;2.70;;
22632;SDS011;11483;55.828;37.488;2022-12-29T08:41:30;5.50;;;2.73;;
22632;SDS011;11483;55.828;37.488;2022-12-29T08:43:56;11.80;;;3.23;;
22632;SDS011;11483;55.828;37.488;2022-12-29T08:46:22;7.10;;;2.57;;
22632;SDS011;11483;55.828;37.488;2022-12-29T08:48:48;6.80;;;3.10;;
22632;SDS011;11483;55.828;37.488;2022-12-29T08:51:14;7.10;;;2.57;;
22632;SDS011;11483;55.828;37.488;2022-12-29T08:53:40;11.60;;;2.83;;
22632;SDS011;11483;55.828;37.488;2022-12-29T08:56:06;8.03;;;3.00;;
22632;SDS011;11483;55.828;37.488;2022-12-29T08:58:34;12.23;;;3.23;;
22632;SDS011;11483;55.828;37.488;2022-12-29T09:01:01;9.60;;;2.67;;
22632;SDS011;11483;55.828;37.488;2022-12-29T09:03:27;6.97;;;2.67;;
22632;SDS011;11483;55.828;37.488;2022-12-29T09:05:53;6.73;;;2.90;;
22632;SDS011;11483;55.828;37.488;2022-12-29T09:08:20;9.70;;;2.60;;
22632;SDS011;11483;55.828;37.488;2022-12-29T09:10:47;5.77;;;2.40;;
22632;SDS011;11483;55.828;37.488;2022-12-29T09:13:13;10.33;;;3.13;;
22632;SDS011;11483;55.828;37.488;2022-12-29T09:15:39;7.57;;;2.50;;
22632;SDS011;11483;55.828;37.488;2022-12-29T09:18:07;19.83;;;3.13;;
22632;SDS011;11483;55.828;37.488;2022-12-29T09:20:33;9.63;;;2.77;;
22632;SDS011;11483;55.828;37.488;2022-12-29T09:22:59;7.10;;;2.43;;
22632;SDS011;11483;55.828;37.488;2022-12-29T09:25:25;5.83;;;2.70;;
22632;SDS011;11483;55.828;37.488;2022-12-29T09:27:51;8.30;;;3.87;;
22632;SDS011;11483;55.828;37.488;2022-12-29T09:30:18;8.30;;;3.27;;
22632;SDS011;11483;55.828;37.488;2022-12-29T09:32:45;7.53;;;2.97;;
22632;SDS011;11483;55.828;37.488;2022-12-29T09:35:12;12.53;;;2.73;;
22632;SDS011;11483;55.828;37.488;2022-12-29T09:37:39;6.13;;;2.83;;
22632;SDS011;11483;55.828;37.488;2022-12-29T09:40:06;9.33;;;3.50;;
22632;SDS011;11483;55.828;37.488;2022-12-29T09:42:40;8.50;;;2.80;;
22632;SDS011;11483;55.828;37.488;2022-12-29T09:47:49;15.23;;;4.27;;
22632;SDS011;11483;55.828;37.488;2022-12-29T09:55:26;10.40;;;4.43;;
22632;SDS011;11483;55.828;37.488;2022-12-29T09:58:02;7.97;;;4.03;;
22632;SDS011;11483;55.828;37.488;2022-12-29T10:00:57;17.97;;;4.40;;
22632;SDS011;11483;55.828;37.488;2022-12-29T10:03:47;12.03;;;4.53;;
22632;SDS011;11483;55.828;37.488;2022-12-29T10:06:17;11.10;;;4.80;;
22632;SDS011;11483;55.828;37.488;2022-12-29T10:14:43;9.93;;;4.97;;
22632;SDS011;11483;55.828;37.488;2022-12-29T10:25:29;12.97;;;6.03;;
22632;SDS011;11483;55.828;37.488;2022-12-29T10:28:03;14.03;;;5.37;;
22632;SDS011;11483;55.828;37.488;2022-12-29T10:30:35;14.27;;;5.60;;
22632;SDS011;11483;55.828;37.488;2022-12-29T10:33:03;11.27;;;4.83;;
22632;SDS011;11483;55.828;37.488;2022-12-29T10:35:35;12.20;;;5.30;;
22632;SDS011;11483;55.828;37.488;2022-12-29T10:41:20;13.10;;;4.57;;
22632;SDS011;11483;55.828;37.488;2022-12-29T10:43:54;9.73;;;4.50;;
22632;SDS011;11483;55.828;37.488;2022-12-29T10:46:23;16.33;;;4.70;;
22632;SDS011;11483;55.828;37.488;2022-12-29T10:48:52;12.23;;;5.03;;
22632;SDS011;11483;55.828;37.488;2022-12-29T10:51:20;10.97;;;4.10;;
22632;SDS011;11483;55.828;37.488;2022-12-29T10:56:34;13.17;;;4.47;;
22632;SDS011;11483;55.828;37.488;2022-12-29T10:59:27;9.40;;;3.83;;
22632;SDS011;11483;55.828;37.488;2022-12-29T11:04:33;9.20;;;4.20;;
22632;SDS011;11483;55.828;37.488;2022-12-29T11:07:10;6.17;;;3.30;;
22632;SDS011;11483;55.828;37.488;2022-12-29T11:09:37;9.83;;;3.43;;
22632;SDS011;11483;55.828;37.488;2022-12-29T11:12:24;11.27;;;3.80;;
22632;SDS011;11483;55.828;37.488;2022-12-29T11:15:12;10.10;;;3.87;;
22632;SDS011;11483;55.828;37.488;2022-12-29T11:17:50;12.40;;;3.93;;
22632;SDS011;11483;55.828;37.488;2022-12-29T11:20:38;12.20;;;3.53;;
22632;SDS011;11483;55.828;37.488;2022-12-29T11:23:05;9.97;;;3.83;;
22632;SDS011;11483;55.828;37.488;2022-12-29T11:25:50;11.83;;;4.77;;
22632;SDS011;11483;55.828;37.488;2022-12-29T11:28:39;12.60;;;3.37;;
22632;SDS011;11483;55.828;37.488;2022-12-29T11:31:07;12.23;;;3.87;;
22632;SDS011;11483;55.828;37.488;2022-12-29T11:33:37;9.70;;;3.23;;
22632;SDS011;11483;55.828;37.488;2022-12-29T11:36:05;8.30;;;3.73;;
22632;SDS011;11483;55.828;37.488;2022-12-29T11:38:36;9.27;;;2.90;;
22632;SDS011;11483;55.828;37.488;2022-12-29T11:41:19;15.17;;;4.00;;
22632;SDS011;11483;55.828;37.488;2022-12-29T11:43:49;5.97;;;2.93;;
22632;SDS011;11483;55.828;37.488;2022-12-29T11:46:26;7.37;;;3.60;;
22632;SDS011;11483;55.828;37.488;2022-12-29T11:48:56;15.07;;;3.47;;
22632;SDS011;11483;55.828;37.488;2022-12-29T11:51:28;7.73;;;3.47;;
22632;SDS011;11483;55.828;37.488;2022-12-29T11:54:06;8.27;;;3.30;;
22632;SDS011;11483;55.828;37.488;2022-12-29T11:56:41;10.73;;;3.77;;
22632;SDS011;11483;55.828;37.488;2022-12-29T12:01:53;10.03;;;3.87;;
22632;SDS011;11483;55.828;37.488;2022-12-29T12:04:21;11.53;;;3.73;;
22632;SDS011;11483;55.828;37.488;2022-12-29T12:09:34;10.00;;;3.57;;
22632;SDS011;11483;55.828;37.488;2022-12-29T12:12:04;9.80;;;3.83;;
22632;SDS011;11483;55.828;37.488;2022-12-29T12:14:38;8.73;;;3.80;;
22632;SDS011;11483;55.828;37.488;2022-12-29T12:17:18;7.70;;;3.77;;
22632;SDS011;11483;55.828;37.488;2022-12-29T12:31:01;15.50;;;5.43;;
22632;SDS011;11483;55.828;37.488;2022-12-29T12:33:38;17.10;;;4.97;;
22632;SDS011;11483;55.828;37.488;2022-12-29T12:50:27;14.80;;;5.20;;
22632;SDS011;11483;55.828;37.488;2022-12-29T12:53:04;21.20;;;5.33;;
22632;SDS011;11483;55.828;37.488;2022-12-29T13:03:45;18.27;;;5.50;;
22632;SDS011;11483;55.828;37.488;2022-12-29T13:06:42;16.80;;;5.93;;
22632;SDS011;11483;55.828;37.488;2022-12-29T13:23:39;15.20;;;6.10;;
22632;SDS011;11483;55.828;37.488;2022-12-29T13:28:59;16.27;;;6.77;;
22632;SDS011;11483;55.828;37.488;2022-12-29T13:31:53;22.13;;;6.60;;
22632;SDS011;11483;55.828;37.488;2022-12-29T13:34:24;22.07;;;6.40;;
22632;SDS011;11483;55.828;37.488;2022-12-29T13:37:12;20.03;;;7.10;;
22632;SDS011;11483;55.828;37.488;2022-12-29T13:40:18;23.90;;;7.17;;
22632;SDS011;11483;55.828;37.488;2022-12-29T13:42:40;17.70;;;6.80;;
22632;SDS011;11483;55.828;37.488;2022-12-29T13:45:10;17.93;;;7.20;;
22632;SDS011;11483;55.828;37.488;2022-12-29T13:51:00;15.63;;;6.13;;
22632;SDS011;11483;55.828;37.488;2022-12-29T13:53:34;20.67;;;6.37;;
22632;SDS011;11483;55.828;37.488;2022-12-29T13:56:17;23.87;;;6.80;;
22632;SDS011;11483;55.828;37.488;2022-12-29T14:05:04;19.37;;;6.90;;
22632;SDS011;11483;55.828;37.488;2022-12-29T14:07:57;29.77;;;6.70;;
22632;SDS011;11483;55.828;37.488;2022-12-29T14:10:37;23.63;;;8.40;;
22632;SDS011;11483;55.828;37.488;2022-12-29T14:13:23;22.20;;;6.43;;
22632;SDS011;11483;55.828;37.488;2022-12-29T14:15:57;20.93;;;7.07;;
22632;SDS011;11483;55.828;37.488;2022-12-29T14:18:27;19.43;;;7.27;;
22632;SDS011;11483;55.828;37.488;2022-12-29T14:20:58;26.20;;;7.67;;
22632;SDS011;11483;55.828;37.488;2022-12-29T14:23:38;49.67;;;15.97;;
22632;SDS011;11483;55.828;37.488;2022-12-29T14:28:33;23.07;;;8.37;;
22632;SDS011;11483;55.828;37.488;2022-12-29T14:31:01;41.17;;;8.93;;
22632;SDS011;11483;55.828;37.488;2022-12-29T14:33:33;29.80;;;9.53;;
22632;SDS011;11483;55.828;37.488;2022-12-29T14:41:59;24.23;;;7.40;;
22632;SDS011;11483;55.828;37.488;2022-12-29T14:44:30;31.10;;;10.10;;
22632;SDS011;11483;55.828;37.488;2022-12-29T14:47:00;34.97;;;9.77;;
22632;SDS011;11483;55.828;37.488;2022-12-29T14:49:32;31.67;;;10.83;;
22632;SDS011;11483;55.828;37.488;2022-12-29T14:52:12;28.37;;;9.90;;
22632;SDS011;11483;55.828;37.488;2022-12-29T14:54:43;31.30;;;9.97;;
22632;SDS011;11483;55.828;37.488;2022-12-29T14:57:32;26.40;;;9.40;;
22632;SDS011;11483;55.828;37.488;2022-12-29T15:02:39;27.70;;;10.23;;
22632;SDS011;11483;55.828;37.488;2022-12-29T15:05:26;35.50;;;9.50;;
22632;SDS011;11483;55.828;37.488;2022-12-29T15:07:59;26.13;;;10.37;;
22632;SDS011;11483;55.828;37.488;2022-12-29T15:10:31;31.33;;;10.20;;
22632;SDS011;11483;55.828;37.488;2022-12-29T15:13:04;30.30;;;9.93;;
22632;SDS011;11483;55.828;37.488;2022-12-29T15:15:39;25.47;;;10.10;;
22632;SDS011;11483;55.828;37.488;2022-12-29T15:18:25;50.00;;;11.47;;
22632;SDS011;11483;55.828;37.488;2022-12-29T15:20:57;26.17;;;10.07;;
22632;SDS011;11483;55.828;37.488;2022-12-29T15:23:29;40.67;;;11.13;;
22632;SDS011;11483;55.828;37.488;2022-12-29T15:25:57;35.10;;;12.23;;
22632;SDS011;11483;55.828;37.488;2022-12-29T15:28:36;35.43;;;12.53;;
22632;SDS011;11483;55.828;37.488;2022-12-29T15:31:23;40.57;;;11.60;;
22632;SDS011;11483;55.828;37.488;2022-12-29T15:33:54;45.37;;;11.93;;
22632;SDS011;11483;55.828;37.488;2022-12-29T15:36:28;36.67;;;11.40;;
22632;SDS011;11483;55.828;37.488;2022-12-29T15:39:01;35.87;;;10.47;;
22632;SDS011;11483;55.828;37.488;2022-12-29T15:41:56;34.17;;;11.37;;
22632;SDS011;11483;55.828;37.488;2022-12-29T15:44:36;37.53;;;11.53;;
22632;SDS011;11483;55.828;37.488;2022-12-29T15:47:05;32.80;;;10.87;;
22632;SDS011;11483;55.828;37.488;2022-12-29T15:49:50;28.60;;;11.07;;
22632;SDS011;11483;55.828;37.488;2022-12-29T15:52:19;41.17;;;12.33;;
22632;SDS011;11483;55.828;37.488;2022-12-29T15:54:50;39.57;;;11.57;;
22632;SDS011;11483;55.828;37.488;2022-12-29T15:57:26;26.13;;;10.57;;
22632;SDS011;11483;55.828;37.488;2022-12-29T15:59:57;34.97;;;11.33;;
22632;SDS011;11483;55.828;37.488;2022-12-29T16:02:24;47.70;;;12.47;;
22632;SDS011;11483;55.828;37.488;2022-12-29T16:04:51;30.47;;;10.70;;
22632;SDS011;11483;55.828;37.488;2022-12-29T16:10:02;28.23;;;11.30;;
22632;SDS011;11483;55.828;37.488;2022-12-29T16:12:32;33.30;;;12.63;;
22632;SDS011;11483;55.828;37.488;2022-12-29T16:15:01;34.70;;;12.47;;
22632;SDS011;11483;55.828;37.488;2022-12-29T16:17:31;55.20;;;12.77;;
22632;SDS011;11483;55.828;37.488;2022-12-29T16:20:18;48.77;;;12.93;;
22632;SDS011;11483;55.828;37.488;2022-12-29T16:22:47;36.70;;;10.20;;
22632;SDS011;11483;55.828;37.488;2022-12-29T16:25:16;28.73;;;9.70;;
22632;SDS011;11483;55.828;37.488;2022-12-29T16:27:49;28.93;;;9.07;;
22632;SDS011;11483;55.828;37.488;2022-12-29T16:30:20;26.60;;;8.27;;
22632;SDS011;11483;55.828;37.488;2022-12-29T16:32:49;27.20;;;9.10;;
22632;SDS011;11483;55.828;37.488;2022-12-29T16:38:12;28.87;;;9.43;;
22632;SDS011;11483;55.828;37.488;2022-12-29T16:40:51;44.23;;;10.07;;
22632;SDS011;11483;55.828;37.488;2022-12-29T16:43:25;52.67;;;10.93;;
22632;SDS011;11483;55.828;37.488;2022-12-29T16:48:29;33.77;;;10.87;;
22632;SDS011;11483;55.828;37.488;2022-12-29T16:51:14;26.73;;;10.67;;
22632;SDS011;11483;55.828;37.488;2022-12-29T16:53:42;25.73;;;9.73;;
22632;SDS011;11483;55.828;37.488;2022-12-29T16:56:24;31.03;;;10.67;;
22632;SDS011;11483;55.828;37.488;2022-12-29T17:01:45;28.53;;;10.13;;
22632;SDS011;11483;55.828;37.488;2022-12-29T17:04:11;38.03;;;11.10;;
22632;SDS011;11483;55.828;37.488;2022-12-29T17:06:39;34.53;;;10.73;;
22632;SDS011;11483;55.828;37.488;2022-12-29T17:09:18;45.57;;;10.53;;
22632;SDS011;11483;55.828;37.488;2022-12-29T17:11:51;41.03;;;10.87;;
22632;SDS011;11483;55.828;37.488;2022-12-29T17:17:02;44.27;;;10.97;;
22632;SDS011;11483;55.828;37.488;2022-12-29T17:19:31;39.67;;;11.90;;
22632;SDS011;11483;55.828;37.488;2022-12-29T17:21:59;31.90;;;11.53;;